createdAt,value
2022-09-22T00:00:02.394Z,1024.49
2022-09-22T00:01:02.630Z,1024.53
2022-09-22T00:02:02.801Z,1024.50
2022-09-22T00:03:03.269Z,1024.46
2022-09-22T00:04:04.646Z,1024.46
2022-09-22T00:05:03.825Z,1024.52
2022-09-22T00:06:04.010Z,1024.48
2022-09-22T00:07:04.213Z,1024.49
2022-09-22T00:08:06.416Z,1024.48
2022-09-22T00:09:03.186Z,1024.47
2022-09-22T00:10:05.376Z,1024.47
2022-09-22T00:11:05.526Z,1024.45
2022-09-22T00:12:05.704Z,1024.44
2022-09-22T00:13:05.971Z,1024.46
2022-09-22T00:14:04.574Z,1024.44
2022-09-22T00:15:06.760Z,1024.41
2022-09-22T00:16:05.157Z,1024.44
2022-09-22T00:17:07.289Z,1024.41
2022-09-22T00:18:08.949Z,1024.41
2022-09-22T00:19:05.973Z,1024.41
2022-09-22T00:20:08.161Z,1024.38
2022-09-22T00:21:06.524Z,1024.42
2022-09-22T00:22:06.810Z,1024.38
2022-09-22T00:23:09.052Z,1024.38
2022-09-22T00:24:07.561Z,1024.36
2022-09-22T00:25:09.615Z,1024.35
2022-09-22T00:26:07.978Z,1024.33
2022-09-22T00:27:08.273Z,1024.37
2022-09-22T00:28:09.592Z,1024.37
2022-09-22T00:29:08.887Z,1024.39
2022-09-22T00:30:10.983Z,1024.35
2022-09-22T00:31:09.381Z,1024.30
2022-09-22T00:32:09.672Z,1024.34
2022-09-22T00:33:11.921Z,1024.28
2022-09-22T00:34:10.768Z,1024.28
2022-09-22T00:35:13.308Z,1024.27
2022-09-22T00:36:10.812Z,1024.28
2022-09-22T00:37:12.031Z,1024.29
2022-09-22T00:38:14.757Z,1024.24
2022-09-22T00:39:13.494Z,1024.29
2022-09-22T00:40:12.031Z,1024.30
2022-09-22T00:41:12.309Z,1024.27
2022-09-22T00:42:12.621Z,1024.29
2022-09-22T00:43:13.911Z,1024.30
2022-09-22T00:44:15.132Z,1024.28
2022-09-22T00:45:13.380Z,1024.29
2022-09-22T00:46:15.583Z,1024.33
2022-09-22T00:47:13.923Z,1024.25
2022-09-22T00:48:15.179Z,1024.28
2022-09-22T00:49:16.415Z,1024.26
2022-09-22T00:50:15.650Z,1024.25
2022-09-22T00:51:16.065Z,1024.24
2022-09-22T00:52:17.294Z,1024.24
2022-09-22T00:53:16.650Z,1024.22
2022-09-22T00:54:17.887Z,1024.26
2022-09-22T00:55:16.256Z,1024.23
2022-09-22T00:56:16.551Z,1024.21
2022-09-22T00:57:16.826Z,1024.22
2022-09-22T00:58:19.918Z,1024.21
2022-09-22T00:59:18.939Z,1024.21
2022-09-22T01:00:17.664Z,1024.22
2022-09-22T01:01:17.972Z,1024.21
2022-09-22T01:02:20.147Z,1024.22
2022-09-22T01:03:18.628Z,1024.21
2022-09-22T01:04:20.729Z,1024.22
2022-09-22T01:05:19.102Z,1024.20
2022-09-22T01:06:20.281Z,1024.21
2022-09-22T01:07:19.623Z,1024.23
2022-09-22T01:08:21.775Z,1024.22
2022-09-22T01:09:21.968Z,1024.18
2022-09-22T01:10:22.128Z,1024.18
2022-09-22T01:11:22.316Z,1024.18
2022-09-22T01:12:23.001Z,1024.16
2022-09-22T01:13:21.357Z,1024.16
2022-09-22T01:14:21.641Z,1024.12
2022-09-22T01:15:21.945Z,1024.14
2022-09-22T01:16:24.226Z,1024.16
2022-09-22T01:17:22.579Z,1024.13
2022-09-22T01:18:22.859Z,1024.13
2022-09-22T01:19:25.191Z,1024.12
2022-09-22T01:20:23.418Z,1024.09
2022-09-22T01:21:25.611Z,1024.07
2022-09-22T01:22:23.967Z,1024.08
2022-09-22T01:23:26.173Z,1024.10
2022-09-22T01:24:26.382Z,1024.07
2022-09-22T01:25:24.872Z,1024.07
2022-09-22T01:26:27.049Z,1024.01
2022-09-22T01:27:25.642Z,1023.98
2022-09-22T01:28:27.572Z,1024.01
2022-09-22T01:29:27.731Z,1024.06
2022-09-22T01:30:27.891Z,1024.02
2022-09-22T01:31:28.658Z,1024.02
2022-09-22T01:32:28.768Z,1023.98
2022-09-22T01:33:28.958Z,1023.96
2022-09-22T01:34:29.148Z,1023.96
2022-09-22T01:35:27.882Z,1023.97
2022-09-22T01:36:30.079Z,1023.97
2022-09-22T01:37:30.283Z,1023.94
2022-09-22T01:38:28.768Z,1023.93
2022-09-22T01:39:30.954Z,1023.93
2022-09-22T01:40:31.176Z,1023.98
2022-09-22T01:41:31.325Z,1023.91
2022-09-22T01:42:31.508Z,1023.90
2022-09-22T01:43:32.191Z,1023.88
2022-09-22T01:44:30.548Z,1023.89
2022-09-22T01:45:32.780Z,1023.91
2022-09-22T01:46:32.978Z,1023.90
2022-09-22T01:47:34.075Z,1023.90
2022-09-22T01:48:33.314Z,1023.86
2022-09-22T01:49:32.032Z,1023.87
2022-09-22T01:50:32.324Z,1023.85
2022-09-22T01:51:33.598Z,1023.82
2022-09-22T01:52:36.255Z,1023.81
2022-09-22T01:53:34.973Z,1023.78
2022-09-22T01:54:33.581Z,1023.82
2022-09-22T01:55:35.785Z,1023.83
2022-09-22T01:56:34.142Z,1023.82
2022-09-22T01:57:35.416Z,1023.81
2022-09-22T01:58:36.639Z,1023.84
2022-09-22T01:59:35.022Z,1023.83
2022-09-22T02:00:37.192Z,1023.80
2022-09-22T02:01:37.475Z,1023.80
2022-09-22T02:02:38.043Z,1023.79
2022-09-22T02:03:37.786Z,1023.79
2022-09-22T02:04:36.532Z,1023.78
2022-09-22T02:05:38.685Z,1023.77
2022-09-22T02:06:38.876Z,1023.73
2022-09-22T02:07:40.101Z,1023.77
2022-09-22T02:08:39.346Z,1023.73
2022-09-22T02:09:37.953Z,1023.74
2022-09-22T02:10:40.154Z,1023.73
2022-09-22T02:11:40.345Z,1023.74
2022-09-22T02:12:39.807Z,1023.73
2022-09-22T02:13:41.044Z,1023.72
2022-09-22T02:14:39.407Z,1023.66
2022-09-22T02:15:41.665Z,1023.67
2022-09-22T02:16:40.026Z,1023.66
2022-09-22T02:17:43.196Z,1023.69
2022-09-22T02:18:42.417Z,1023.68
2022-09-22T02:19:40.903Z,1023.68
2022-09-22T02:20:43.101Z,1023.64
2022-09-22T02:21:41.478Z,1023.64
2022-09-22T02:22:42.738Z,1023.65
2022-09-22T02:23:43.968Z,1023.65
2022-09-22T02:24:42.327Z,1023.62
2022-09-22T02:25:42.628Z,1023.64
2022-09-22T02:26:42.905Z,1023.63
2022-09-22T02:27:44.225Z,1023.60
2022-09-22T02:28:46.348Z,1023.64
2022-09-22T02:29:43.739Z,1023.62
2022-09-22T02:30:54.414Z,1023.62
2022-09-22T02:31:46.240Z,1023.61
2022-09-22T02:32:45.559Z,1023.60
2022-09-22T02:33:46.801Z,1023.58
2022-09-22T02:34:45.161Z,1023.61
2022-09-22T02:35:45.457Z,1023.56
2022-09-22T02:36:45.836Z,1023.55
2022-09-22T02:37:48.142Z,1023.57
2022-09-22T02:38:48.147Z,1023.58
2022-09-22T02:39:46.514Z,1023.58
2022-09-22T02:40:46.887Z,1023.61
2022-09-22T02:41:48.049Z,1023.56
2022-09-22T02:42:48.160Z,1023.57
2022-09-22T02:43:49.527Z,1023.58
2022-09-22T02:44:47.767Z,1023.58
2022-09-22T02:45:48.235Z,1023.56
2022-09-22T02:46:50.269Z,1023.60
2022-09-22T02:47:49.473Z,1023.60
2022-09-22T02:48:49.889Z,1023.61
2022-09-22T02:49:49.259Z,1023.58
2022-09-22T02:50:50.466Z,1023.57
2022-09-22T02:51:51.732Z,1023.54
2022-09-22T02:52:51.095Z,1023.56
2022-09-22T02:53:52.340Z,1023.56
2022-09-22T02:54:52.498Z,1023.56
2022-09-22T02:55:50.995Z,1023.54
2022-09-22T02:56:51.281Z,1023.59
2022-09-22T02:57:54.453Z,1023.56
2022-09-22T02:58:58.215Z,1023.55
2022-09-22T02:59:52.081Z,1023.56
2022-09-22T03:00:52.360Z,1023.56
2022-09-22T03:01:52.697Z,1023.52
2022-09-22T03:02:54.945Z,1023.57
2022-09-22T03:03:55.041Z,1023.55
2022-09-22T03:04:53.581Z,1023.53
2022-09-22T03:05:55.727Z,1023.52
2022-09-22T03:06:54.088Z,1023.50
2022-09-22T03:07:57.732Z,1023.50
2022-09-22T03:08:54.627Z,1023.50
2022-09-22T03:09:56.815Z,1023.50
2022-09-22T03:10:56.989Z,1023.48
2022-09-22T03:11:55.480Z,1023.47
2022-09-22T03:13:15.468Z,1023.47
2022-09-22T03:13:59.023Z,1023.44
2022-09-22T03:14:56.277Z,1023.45
2022-09-22T03:15:56.577Z,1023.45
2022-09-22T03:16:56.856Z,1023.44
2022-09-22T03:18:00.011Z,1023.41
2022-09-22T03:18:59.227Z,1023.43
2022-09-22T03:19:59.399Z,1023.43
2022-09-22T03:20:59.590Z,1023.44
2022-09-22T03:22:00.280Z,1023.45
2022-09-22T03:22:59.681Z,1023.41
2022-09-22T03:24:00.868Z,1023.42
2022-09-22T03:25:01.063Z,1023.41
2022-09-22T03:26:01.259Z,1023.40
2022-09-22T03:27:01.452Z,1023.42
2022-09-22T03:28:03.651Z,1023.49
2022-09-22T03:29:00.426Z,1023.44
2022-09-22T03:30:02.612Z,1023.44
2022-09-22T03:31:01.112Z,1023.42
2022-09-22T03:32:01.273Z,1023.44
2022-09-22T03:33:04.443Z,1023.40
2022-09-22T03:34:03.678Z,1023.43
2022-09-22T03:35:02.173Z,1023.35
2022-09-22T03:36:04.350Z,1023.42
2022-09-22T03:37:04.530Z,1023.40
2022-09-22T03:38:05.673Z,1023.38
2022-09-22T03:39:05.050Z,1023.33
2022-09-22T03:40:05.131Z,1023.31
2022-09-22T03:41:05.793Z,1023.33
2022-09-22T03:42:05.974Z,1023.34
2022-09-22T03:43:07.111Z,1023.33
2022-09-22T03:44:06.338Z,1023.35
2022-09-22T03:45:05.070Z,1023.34
2022-09-22T03:46:07.289Z,1023.30
2022-09-22T03:47:07.436Z,1023.32
2022-09-22T03:48:06.958Z,1023.35
2022-09-22T03:49:07.290Z,1023.34
2022-09-22T03:50:08.471Z,1023.27
2022-09-22T03:51:08.661Z,1023.31
2022-09-22T03:52:08.853Z,1023.24
2022-09-22T03:53:09.359Z,1023.25
2022-09-22T03:54:07.707Z,1023.24
2022-09-22T03:55:08.001Z,1023.19
2022-09-22T03:56:10.188Z,1023.21
2022-09-22T03:57:10.369Z,1023.20
2022-09-22T03:58:09.855Z,1023.21
2022-09-22T03:59:09.204Z,1023.22
2022-09-22T04:00:09.493Z,1023.21
2022-09-22T04:01:09.838Z,1023.20
2022-09-22T04:02:12.018Z,1023.19
2022-09-22T04:03:11.559Z,1023.20
2022-09-22T04:04:10.705Z,1023.27
2022-09-22T04:05:12.907Z,1023.20
2022-09-22T04:06:11.275Z,1023.19
2022-09-22T04:07:11.550Z,1023.26
2022-09-22T04:08:14.707Z,1023.22
2022-09-22T04:09:12.188Z,1023.25
2022-09-22T04:10:14.273Z,1023.24
2022-09-22T04:11:14.462Z,1023.24
2022-09-22T04:12:14.614Z,1023.22
2022-09-22T04:13:14.204Z,1023.18
2022-09-22T04:14:15.430Z,1023.21
2022-09-22T04:15:15.610Z,1023.24
2022-09-22T04:16:14.175Z,1023.24
2022-09-22T04:17:17.745Z,1023.23
2022-09-22T04:18:15.651Z,1023.21
2022-09-22T04:19:16.908Z,1023.19
2022-09-22T04:20:17.078Z,1023.22
2022-09-22T04:21:15.450Z,1023.19
2022-09-22T04:22:19.095Z,1023.15
2022-09-22T04:23:18.018Z,1023.15
2022-09-22T04:24:18.075Z,1023.14
2022-09-22T04:25:18.280Z,1023.14
2022-09-22T04:26:16.896Z,1023.14
2022-09-22T04:27:21.141Z,1023.14
2022-09-22T04:28:18.271Z,1023.16
2022-09-22T04:29:17.783Z,1023.17
2022-09-22T04:30:19.996Z,1023.20
2022-09-22T04:31:18.455Z,1023.13
2022-09-22T04:32:21.507Z,1023.18
2022-09-22T04:33:20.724Z,1023.16
2022-09-22T04:34:19.331Z,1023.14
2022-09-22T04:35:22.486Z,1023.17
2022-09-22T04:36:20.808Z,1023.14
2022-09-22T04:37:22.047Z,1023.14
2022-09-22T04:38:22.218Z,1023.17
2022-09-22T04:39:23.813Z,1023.16
2022-09-22T04:40:21.069Z,1023.16
2022-09-22T04:41:22.149Z,1023.15
2022-09-22T04:42:23.529Z,1023.16
2022-09-22T04:43:23.754Z,1023.18
2022-09-22T04:44:23.081Z,1023.13
2022-09-22T04:45:23.296Z,1023.15
2022-09-22T04:46:23.775Z,1023.15
2022-09-22T04:47:24.966Z,1023.11
2022-09-22T04:48:25.153Z,1023.12
2022-09-22T04:49:23.655Z,1023.15
2022-09-22T04:50:23.953Z,1023.09
2022-09-22T04:51:24.256Z,1023.12
2022-09-22T04:52:26.438Z,1023.11
2022-09-22T04:53:24.823Z,1023.11
2022-09-22T04:54:25.131Z,1023.07
2022-09-22T04:55:25.436Z,1023.13
2022-09-22T04:56:25.739Z,1023.11
2022-09-22T04:57:27.011Z,1023.09
2022-09-22T04:58:28.252Z,1022.98
2022-09-22T04:59:26.638Z,1023.03
2022-09-22T05:00:26.953Z,1022.98
2022-09-22T05:01:27.333Z,1022.99
2022-09-22T05:02:27.497Z,1023.00
2022-09-22T05:03:29.842Z,1023.00
2022-09-22T05:04:28.047Z,1023.00
2022-09-22T05:05:28.369Z,1023.00
2022-09-22T05:06:28.673Z,1023.02
2022-09-22T05:07:30.852Z,1022.97
2022-09-22T05:08:31.028Z,1022.97
2022-09-22T05:09:29.545Z,1022.98
2022-09-22T05:10:29.867Z,1023.02
2022-09-22T05:11:32.066Z,1022.99
2022-09-22T05:12:33.240Z,1022.95
2022-09-22T05:13:32.450Z,1022.99
2022-09-22T05:14:31.169Z,1022.96
2022-09-22T05:15:33.292Z,1022.92
2022-09-22T05:16:33.535Z,1022.96
2022-09-22T05:17:34.053Z,1022.95
2022-09-22T05:18:33.896Z,1022.95
2022-09-22T05:19:34.599Z,1022.94
2022-09-22T05:20:34.810Z,1022.96
2022-09-22T05:21:33.321Z,1022.95
2022-09-22T05:22:39.832Z,1022.93
2022-09-22T05:23:35.731Z,1022.86
2022-09-22T05:24:35.925Z,1022.93
2022-09-22T05:25:36.162Z,1022.98
2022-09-22T05:26:37.310Z,1022.94
2022-09-22T05:27:38.581Z,1023.00
2022-09-22T05:28:35.773Z,1023.01
2022-09-22T05:29:37.596Z,1023.00
2022-09-22T05:30:37.754Z,1022.96
2022-09-22T05:31:38.006Z,1022.97
2022-09-22T05:32:39.072Z,1022.99
2022-09-22T05:33:38.317Z,1023.01
2022-09-22T05:34:38.477Z,1023.00
2022-09-22T05:35:39.183Z,1022.98
2022-09-22T05:36:39.350Z,1023.00
2022-09-22T05:37:40.529Z,1023.01
2022-09-22T05:38:39.751Z,1022.98
2022-09-22T05:39:40.450Z,1022.99
2022-09-22T05:40:38.938Z,1023.01
2022-09-22T05:41:39.156Z,1023.00
2022-09-22T05:42:42.312Z,1023.02
2022-09-22T05:43:41.526Z,1022.98
2022-09-22T05:44:41.686Z,1023.02
2022-09-22T05:45:41.924Z,1022.99
2022-09-22T05:46:42.566Z,1023.00
2022-09-22T05:47:44.226Z,1023.02
2022-09-22T05:48:42.950Z,1023.03
2022-09-22T05:49:43.143Z,1023.01
2022-09-22T05:50:43.328Z,1023.03
2022-09-22T05:51:44.022Z,1023.03
2022-09-22T05:52:43.902Z,1023.06
2022-09-22T05:53:44.638Z,1023.00
2022-09-22T05:54:44.830Z,1023.01
2022-09-22T05:55:45.049Z,1023.04
2022-09-22T05:56:45.200Z,1023.04
2022-09-22T05:57:46.372Z,1023.00
2022-09-22T05:58:46.111Z,1023.04
2022-09-22T05:59:46.301Z,1023.03
2022-09-22T06:00:46.529Z,1023.03
2022-09-22T06:01:46.690Z,1023.00
2022-09-22T06:02:47.405Z,1023.03
2022-09-22T06:03:47.601Z,1023.02
2022-09-22T06:04:49.718Z,1023.04
2022-09-22T06:05:46.137Z,1023.05
2022-09-22T06:06:48.319Z,1023.07
2022-09-22T06:07:47.704Z,1023.02
2022-09-22T06:08:49.359Z,1023.05
2022-09-22T06:09:49.112Z,1023.04
2022-09-22T06:10:47.505Z,1023.06
2022-09-22T06:11:48.846Z,1023.07
2022-09-22T06:12:48.169Z,1023.05
2022-09-22T06:13:50.316Z,1023.04
2022-09-22T06:14:48.722Z,1023.00
2022-09-22T06:15:50.909Z,1023.02
2022-09-22T06:16:49.349Z,1023.02
2022-09-22T06:17:50.623Z,1022.99
2022-09-22T06:18:49.878Z,1022.96
2022-09-22T06:19:52.071Z,1023.01
2022-09-22T06:20:52.253Z,1022.96
2022-09-22T06:21:50.784Z,1022.95
2022-09-22T06:22:52.130Z,1022.92
2022-09-22T06:23:51.404Z,1022.92
2022-09-22T06:24:51.741Z,1022.90
2022-09-22T06:25:53.922Z,1022.94
2022-09-22T06:26:52.481Z,1022.93
2022-09-22T06:27:55.958Z,1022.92
2022-09-22T06:28:52.889Z,1022.92
2022-09-22T06:29:54.019Z,1022.90
2022-09-22T06:30:55.404Z,1022.89
2022-09-22T06:31:53.849Z,1022.92
2022-09-22T06:32:56.476Z,1022.92
2022-09-22T06:33:54.392Z,1022.96
2022-09-22T06:34:54.722Z,1022.96
2022-09-22T06:35:56.911Z,1022.98
2022-09-22T06:36:55.314Z,1022.97
2022-09-22T06:37:56.619Z,1023.00
2022-09-22T06:38:55.901Z,1022.96
2022-09-22T06:39:56.254Z,1022.97
2022-09-22T06:40:56.496Z,1022.93
2022-09-22T06:41:58.643Z,1022.95
2022-09-22T06:42:58.020Z,1022.94
2022-09-22T06:43:57.287Z,1022.93
2022-09-22T06:44:57.672Z,1022.94
2022-09-22T06:45:57.969Z,1022.98
2022-09-22T06:46:58.151Z,1022.96
2022-09-22T06:48:01.312Z,1022.95
2022-09-22T06:48:58.725Z,1022.97
2022-09-22T06:49:59.067Z,1022.92
2022-09-22T06:50:59.399Z,1022.96
2022-09-22T06:52:01.591Z,1022.92
2022-09-22T06:53:02.722Z,1022.95
2022-09-22T06:54:00.275Z,1022.91
2022-09-22T06:55:02.455Z,1022.92
2022-09-22T06:56:00.760Z,1022.90
2022-09-22T06:57:00.985Z,1022.84
2022-09-22T06:58:04.174Z,1022.91
2022-09-22T06:59:10.493Z,1022.84
2022-09-22T07:00:04.765Z,1022.86
2022-09-22T07:01:08.880Z,1022.81
2022-09-22T07:02:05.198Z,1022.83
2022-09-22T07:03:06.243Z,1022.85
2022-09-22T07:04:04.980Z,1022.85
2022-09-22T07:05:05.140Z,1022.85
2022-09-22T07:06:05.302Z,1022.80
2022-09-22T07:07:05.508Z,1022.83
2022-09-22T07:08:07.716Z,1022.85
2022-09-22T07:09:06.492Z,1022.88
2022-09-22T07:10:04.842Z,1022.79
2022-09-22T07:11:06.999Z,1022.78
2022-09-22T07:12:05.296Z,1022.77
2022-09-22T07:13:08.452Z,1022.81
2022-09-22T07:14:05.762Z,1022.84
2022-09-22T07:15:07.947Z,1022.83
2022-09-22T07:16:06.271Z,1022.85
2022-09-22T07:17:06.471Z,1022.89
2022-09-22T07:18:07.693Z,1022.92
2022-09-22T07:19:08.919Z,1022.89
2022-09-22T07:20:09.108Z,1022.91
2022-09-22T07:21:09.272Z,1022.90
2022-09-22T07:22:09.464Z,1022.92
2022-09-22T07:23:09.186Z,1022.92
2022-09-22T07:24:10.361Z,1022.86
2022-09-22T07:25:10.544Z,1022.87
2022-09-22T07:26:10.710Z,1022.86
2022-09-22T07:27:10.865Z,1022.88
2022-09-22T07:28:13.036Z,1022.80
2022-09-22T07:29:11.880Z,1022.84
2022-09-22T07:30:11.969Z,1022.83
2022-09-22T07:31:12.176Z,1022.81
2022-09-22T07:32:12.348Z,1022.82
2022-09-22T07:33:14.006Z,1022.82
2022-09-22T07:34:13.204Z,1022.81
2022-09-22T07:35:11.764Z,1022.83
2022-09-22T07:36:11.990Z,1022.83
2022-09-22T07:37:14.175Z,1022.80
2022-09-22T07:38:13.344Z,1022.82
2022-09-22T07:39:12.766Z,1022.83
2022-09-22T07:40:13.051Z,1022.82
2022-09-22T07:41:13.278Z,1022.81
2022-09-22T07:42:15.469Z,1022.80
2022-09-22T07:43:15.662Z,1022.78
2022-09-22T07:44:14.083Z,1022.78
2022-09-22T07:45:16.269Z,1022.75
2022-09-22T07:46:14.585Z,1022.77
2022-09-22T07:47:16.756Z,1022.72
2022-09-22T07:48:17.899Z,1022.76
2022-09-22T07:49:15.458Z,1022.76
2022-09-22T07:50:17.638Z,1022.73
2022-09-22T07:51:17.830Z,1022.65
2022-09-22T07:52:18.018Z,1022.66
2022-09-22T07:53:18.209Z,1022.65
2022-09-22T07:54:18.397Z,1022.66
2022-09-22T07:55:19.094Z,1022.67
2022-09-22T07:56:19.281Z,1022.68
2022-09-22T07:57:19.444Z,1022.71
2022-09-22T07:58:19.601Z,1022.70
2022-09-22T07:59:20.300Z,1022.72
2022-09-22T08:00:20.491Z,1022.70
2022-09-22T08:01:20.685Z,1022.69
2022-09-22T08:02:20.929Z,1022.71
2022-09-22T08:03:19.844Z,1022.70
2022-09-22T08:04:21.776Z,1022.71
2022-09-22T08:05:21.970Z,1022.68
2022-09-22T08:06:23.797Z,1022.73
2022-09-22T08:07:20.779Z,1022.71
2022-09-22T08:08:21.009Z,1022.72
2022-09-22T08:09:23.193Z,1022.77
2022-09-22T08:10:21.493Z,1022.72
2022-09-22T08:11:23.680Z,1022.77
2022-09-22T08:12:21.972Z,1022.76
2022-09-22T08:13:22.204Z,1022.76
2022-09-22T08:14:22.437Z,1022.72
2022-09-22T08:15:27.125Z,1022.73
2022-09-22T08:16:24.846Z,1022.72
2022-09-22T08:17:26.464Z,1022.71
2022-09-22T08:18:25.205Z,1022.70
2022-09-22T08:19:23.923Z,1022.71
2022-09-22T08:20:27.497Z,1022.68
2022-09-22T08:21:24.441Z,1022.68
2022-09-22T08:22:26.623Z,1022.72
2022-09-22T08:23:24.914Z,1022.76
2022-09-22T08:24:27.131Z,1022.70
2022-09-22T08:25:25.777Z,1022.70
2022-09-22T08:26:27.627Z,1022.71
2022-09-22T08:27:25.924Z,1022.69
2022-09-22T08:28:28.118Z,1022.65
2022-09-22T08:29:28.305Z,1022.64
2022-09-22T08:30:28.492Z,1022.67
2022-09-22T08:31:27.104Z,1022.70
2022-09-22T08:32:27.318Z,1022.71
2022-09-22T08:33:29.506Z,1022.72
2022-09-22T08:34:29.694Z,1022.72
2022-09-22T08:35:29.872Z,1022.69
2022-09-22T08:36:28.436Z,1022.67
2022-09-22T08:37:28.669Z,1022.67
2022-09-22T08:38:30.830Z,1022.70
2022-09-22T08:39:31.480Z,1022.69
2022-09-22T08:40:30.432Z,1022.72
2022-09-22T08:41:30.601Z,1022.70
2022-09-22T08:42:30.952Z,1022.76
2022-09-22T08:43:32.192Z,1022.68
2022-09-22T08:44:32.378Z,1022.68
2022-09-22T08:45:32.569Z,1022.73
2022-09-22T08:46:31.248Z,1022.71
2022-09-22T08:47:31.453Z,1022.71
2022-09-22T08:48:31.688Z,1022.74
2022-09-22T08:49:33.892Z,1022.78
2022-09-22T08:50:34.072Z,1022.75
2022-09-22T08:51:32.524Z,1022.70
2022-09-22T08:52:36.164Z,1022.73
2022-09-22T08:53:32.977Z,1022.75
2022-09-22T08:54:33.207Z,1022.78
2022-09-22T08:55:35.392Z,1022.84
2022-09-22T08:56:33.690Z,1022.80
2022-09-22T08:57:34.949Z,1022.79
2022-09-22T08:58:36.120Z,1022.84
2022-09-22T08:59:34.555Z,1022.86
2022-09-22T09:00:38.041Z,1022.80
2022-09-22T09:01:36.053Z,1022.83
2022-09-22T09:02:36.353Z,1022.76
2022-09-22T09:03:37.525Z,1022.80
2022-09-22T09:04:35.943Z,1022.79
2022-09-22T09:05:38.166Z,1022.83
2022-09-22T09:06:36.455Z,1022.81
2022-09-22T09:07:37.657Z,1022.79
2022-09-22T09:08:38.888Z,1022.80
2022-09-22T09:09:37.194Z,1022.80
2022-09-22T09:10:37.426Z,1022.77
2022-09-22T09:11:39.610Z,1022.78
2022-09-22T09:12:38.887Z,1022.79
2022-09-22T09:13:40.114Z,1022.74
2022-09-22T09:14:38.409Z,1022.76
2022-09-22T09:15:38.683Z,1022.79
2022-09-22T09:16:38.905Z,1022.75
2022-09-22T09:17:39.216Z,1022.80
2022-09-22T09:18:41.394Z,1022.86
2022-09-22T09:19:39.694Z,1022.82
2022-09-22T09:20:39.930Z,1022.77
2022-09-22T09:21:40.156Z,1022.76
2022-09-22T09:22:43.685Z,1022.74
2022-09-22T09:25:42.186Z,1022.74
2022-09-22T09:26:41.467Z,1022.79
2022-09-22T09:27:42.682Z,1022.77
2022-09-22T09:28:43.907Z,1022.76
2022-09-22T09:29:42.205Z,1022.77
2022-09-22T09:30:42.430Z,1022.72
2022-09-22T09:31:42.673Z,1022.77
2022-09-22T09:32:44.903Z,1022.74
2022-09-22T09:33:45.030Z,1022.74
2022-09-22T09:34:43.510Z,1022.73
2022-09-22T09:35:45.646Z,1022.74
2022-09-22T09:36:47.294Z,1022.72
2022-09-22T09:37:46.984Z,1022.69
2022-09-22T09:38:46.210Z,1022.73
2022-09-22T09:39:46.876Z,1022.67
2022-09-22T09:40:45.232Z,1022.73
2022-09-22T09:41:45.437Z,1022.76
2022-09-22T09:42:49.098Z,1022.72
2022-09-22T09:43:47.967Z,1022.71
2022-09-22T09:44:46.140Z,1022.62
2022-09-22T09:45:46.376Z,1022.66
2022-09-22T09:46:46.637Z,1022.67
2022-09-22T09:47:49.776Z,1022.65
2022-09-22T09:48:47.080Z,1022.65
2022-09-22T09:49:52.852Z,1022.65
2022-09-22T09:50:48.657Z,1022.64
2022-09-22T09:51:47.953Z,1022.63
2022-09-22T09:52:50.239Z,1022.58
2022-09-22T09:53:49.540Z,1022.60
2022-09-22T09:54:48.701Z,1022.58
2022-09-22T09:55:48.993Z,1022.58
2022-09-22T09:56:49.209Z,1022.57
2022-09-22T09:57:52.880Z,1022.51
2022-09-22T09:58:51.569Z,1022.55
2022-09-22T09:59:51.729Z,1022.58
2022-09-22T10:00:51.888Z,1022.64
2022-09-22T10:01:52.655Z,1022.64
2022-09-22T10:02:53.161Z,1022.60
2022-09-22T10:03:52.923Z,1022.52
2022-09-22T10:04:53.104Z,1022.53
2022-09-22T10:05:53.281Z,1022.52
2022-09-22T10:06:53.952Z,1022.53
2022-09-22T10:07:54.340Z,1022.51
2022-09-22T10:08:54.372Z,1022.51
2022-09-22T10:09:54.566Z,1022.51
2022-09-22T10:10:55.232Z,1022.52
2022-09-22T10:11:55.417Z,1022.51
2022-09-22T10:12:54.654Z,1022.54
2022-09-22T10:13:55.825Z,1022.52
2022-09-22T10:14:56.021Z,1022.56
2022-09-22T10:15:56.753Z,1022.48
2022-09-22T10:16:56.900Z,1022.47
2022-09-22T10:17:55.536Z,1022.48
2022-09-22T10:18:57.644Z,1022.49
2022-09-22T10:19:57.840Z,1022.51
2022-09-22T10:20:58.023Z,1022.46
2022-09-22T10:21:58.678Z,1022.51
2022-09-22T10:22:57.762Z,1022.47
2022-09-22T10:23:59.216Z,1022.51
2022-09-22T10:24:57.630Z,1022.54
2022-09-22T10:25:57.989Z,1022.55
2022-09-22T10:26:59.493Z,1022.54
2022-09-22T10:27:59.332Z,1022.52
2022-09-22T10:28:59.863Z,1022.57
2022-09-22T10:30:00.539Z,1022.53
2022-09-22T10:31:01.303Z,1022.54
2022-09-22T10:31:59.568Z,1022.43
2022-09-22T10:33:00.763Z,1022.60
2022-09-22T10:34:02.120Z,1022.54
2022-09-22T10:35:00.300Z,1022.52
2022-09-22T10:36:07.754Z,1022.60
2022-09-22T10:37:01.821Z,1022.64
2022-09-22T10:38:01.132Z,1022.60
2022-09-22T10:39:03.329Z,1022.38
2022-09-22T10:40:01.638Z,1022.52
2022-09-22T10:41:01.831Z,1022.47
2022-09-22T10:42:02.066Z,1022.62
2022-09-22T10:43:03.266Z,1022.56
2022-09-22T10:44:27.329Z,1022.55
2022-09-22T10:45:03.813Z,1022.51
2022-09-22T10:46:03.211Z,1022.57
2022-09-22T10:47:03.411Z,1022.59
2022-09-22T10:48:06.614Z,1022.57
2022-09-22T10:49:03.876Z,1022.55
2022-09-22T10:50:06.175Z,1022.54
2022-09-22T10:51:04.347Z,1022.50
2022-09-22T10:52:04.575Z,1022.55
2022-09-22T10:53:07.718Z,1022.57
2022-09-22T10:54:05.162Z,1022.59
2022-09-22T10:55:07.352Z,1022.62
2022-09-22T10:56:05.650Z,1022.57
2022-09-22T10:57:06.148Z,1022.58
2022-09-22T10:58:07.245Z,1022.54
2022-09-22T10:59:06.526Z,1022.51
2022-09-22T11:00:08.786Z,1022.54
2022-09-22T11:01:07.121Z,1022.55
2022-09-22T11:02:07.333Z,1022.32
2022-09-22T11:03:11.008Z,1022.29
2022-09-22T11:04:07.927Z,1022.29
2022-09-22T11:05:08.055Z,1022.28
2022-09-22T11:06:10.246Z,1022.34
2022-09-22T11:07:09.411Z,1022.45
2022-09-22T11:08:10.852Z,1022.46
2022-09-22T11:09:09.146Z,1022.20
2022-09-22T11:10:10.333Z,1022.35
2022-09-22T11:11:11.551Z,1022.41
2022-09-22T11:12:10.722Z,1022.26
2022-09-22T11:13:13.042Z,1022.26
2022-09-22T11:14:10.476Z,1022.28
2022-09-22T11:15:10.701Z,1022.50
2022-09-22T11:16:12.899Z,1022.44
2022-09-22T11:17:11.201Z,1022.47
2022-09-22T11:18:14.504Z,1022.17
2022-09-22T11:19:11.691Z,1022.18
2022-09-22T11:20:13.872Z,1022.22
2022-09-22T11:21:14.032Z,1022.16
2022-09-22T11:22:12.455Z,1022.17
2022-09-22T11:23:15.596Z,1022.24
2022-09-22T11:24:12.917Z,1022.14
2022-09-22T11:25:15.115Z,1022.41
2022-09-22T11:26:15.294Z,1022.41
2022-09-22T11:27:13.716Z,1022.43
2022-09-22T11:28:14.167Z,1022.36
2022-09-22T11:29:14.358Z,1022.39
2022-09-22T11:30:14.709Z,1022.39
2022-09-22T11:31:16.817Z,1022.42
2022-09-22T11:32:15.187Z,1022.33
2022-09-22T11:33:16.387Z,1022.31
2022-09-22T11:34:15.665Z,1022.37
2022-09-22T11:35:15.892Z,1022.40
2022-09-22T11:36:18.080Z,1022.39
2022-09-22T11:37:18.266Z,1022.30
2022-09-22T11:38:19.940Z,1022.31
2022-09-22T11:39:18.638Z,1022.35
2022-09-22T11:40:18.827Z,1022.40
2022-09-22T11:41:19.482Z,1022.11
2022-09-22T11:42:19.670Z,1022.08
2022-09-22T11:43:19.859Z,1022.32
2022-09-22T11:44:20.028Z,1022.39
2022-09-22T11:45:20.692Z,1022.31
2022-09-22T11:46:20.891Z,1022.29
2022-09-22T11:47:21.019Z,1022.30
2022-09-22T11:48:21.169Z,1022.25
2022-09-22T11:49:21.871Z,1022.02
2022-09-22T11:50:22.063Z,1022.06
2022-09-22T11:51:22.199Z,1022.08
2022-09-22T11:52:22.350Z,1022.05
2022-09-22T11:53:23.045Z,1022.14
2022-09-22T11:54:23.224Z,1021.99
2022-09-22T11:55:23.429Z,1022.20
2022-09-22T11:56:23.594Z,1021.94
2022-09-22T11:57:25.026Z,1022.05
2022-09-22T11:58:24.592Z,1022.15
2022-09-22T11:59:22.997Z,1022.23
2022-09-22T12:00:23.222Z,1022.05
2022-09-22T12:01:25.504Z,1022.24
2022-09-22T12:02:24.011Z,1021.99
2022-09-22T12:03:24.728Z,1022.01
2022-09-22T12:04:24.486Z,1021.99
2022-09-22T12:05:24.739Z,1021.94
2022-09-22T12:06:27.891Z,1022.02
2022-09-22T12:07:27.108Z,1021.96
2022-09-22T12:08:27.293Z,1021.99
2022-09-22T12:09:29.627Z,1022.18
2022-09-22T12:10:28.162Z,1022.15